createdAt,value
2019-04-23T00:00:40.722Z,0.00
2019-04-23T00:01:41.865Z,0.00
2019-04-23T00:02:44.383Z,0.00
2019-04-23T00:03:40.250Z,0.00
2019-04-23T00:04:35.187Z,0.00
2019-04-23T00:05:49.071Z,0.00
2019-04-23T00:06:53.844Z,0.00
2019-04-23T00:07:49.300Z,0.00
2019-04-23T00:08:50.195Z,0.00
2019-04-23T00:09:42.385Z,0.00
2019-04-23T00:10:44.105Z,0.00
2019-04-23T00:11:49.602Z,0.00
2019-04-23T00:12:49.402Z,0.00
2019-04-23T00:13:43.912Z,0.00
2019-04-23T00:14:51.405Z,0.00
2019-04-23T00:15:45.409Z,0.00
2019-04-23T00:16:43.953Z,0.00
2019-04-23T00:17:42.544Z,0.00
2019-04-23T00:18:46.456Z,0.00
2019-04-23T00:19:45.143Z,0.00
2019-04-23T00:20:40.747Z,0.00
2019-04-23T00:22:45.348Z,0.00
2019-04-23T00:23:47.870Z,0.00
2019-04-23T00:25:51.061Z,0.00
2019-04-23T00:26:41.830Z,0.00
2019-04-23T00:27:42.882Z,0.00
2019-04-23T00:28:47.898Z,0.00
2019-04-23T00:29:49.606Z,0.00
2019-04-23T00:31:44.586Z,0.00
2019-04-23T00:32:40.840Z,0.00
2019-04-23T00:33:43.682Z,0.00
2019-04-23T00:34:49.726Z,0.00
2019-04-23T00:37:54.897Z,0.00
2019-04-23T00:39:50.737Z,0.00
2019-04-23T00:40:43.622Z,0.00
2019-04-23T00:41:44.229Z,0.00
2019-04-23T00:42:59.538Z,0.00
2019-04-23T00:43:43.223Z,0.00
2019-04-23T00:44:48.128Z,0.00
2019-04-23T00:45:44.141Z,0.00
2019-04-23T00:46:45.282Z,0.00
2019-04-23T00:47:46.698Z,0.00
2019-04-23T00:49:46.959Z,0.00
2019-04-23T00:50:49.254Z,0.00
2019-04-23T00:51:42.918Z,0.00
2019-04-23T00:52:42.185Z,0.00
2019-04-23T00:53:40.148Z,0.00
2019-04-23T00:55:44.690Z,0.00
2019-04-23T00:56:50.791Z,0.00
2019-04-23T00:57:47.091Z,0.00
2019-04-23T00:58:43.183Z,0.00
2019-04-23T00:59:44.760Z,0.00
2019-04-23T01:02:49.351Z,0.00
2019-04-23T01:03:39.434Z,0.00
2019-04-23T01:05:42.240Z,0.00
2019-04-23T01:06:39.065Z,0.00
2019-04-23T01:07:45.825Z,0.00
2019-04-23T01:08:55.418Z,0.00
2019-04-23T01:09:47.393Z,0.00
2019-04-23T01:10:50.948Z,0.00
2019-04-23T01:11:39.186Z,0.00
2019-04-23T01:12:46.117Z,0.00
2019-04-23T01:13:47.468Z,0.00
2019-04-23T01:14:39.262Z,0.00
2019-04-23T01:16:37.417Z,0.00
2019-04-23T01:19:43.923Z,0.00
2019-04-23T01:20:44.447Z,0.00
2019-04-23T01:21:20.586Z,0.00
2019-04-23T01:22:20.992Z,0.00
2019-04-23T01:23:20.731Z,0.00
2019-04-23T01:24:25.052Z,0.00
2019-04-23T01:25:31.005Z,0.00
2019-04-23T01:26:47.972Z,0.00
2019-04-23T01:28:49.662Z,0.00
2019-04-23T01:29:54.588Z,0.00
2019-04-23T01:30:46.830Z,0.00
2019-04-23T01:31:47.523Z,0.00
2019-04-23T01:32:43.665Z,0.00
2019-04-23T01:33:53.151Z,0.00
2019-04-23T01:34:51.969Z,0.00
2019-04-23T01:35:55.785Z,0.00
2019-04-23T01:36:42.940Z,0.00
2019-04-23T01:38:46.159Z,0.00
2019-04-23T01:39:49.891Z,0.00
2019-04-23T01:40:41.154Z,0.00
2019-04-23T01:41:50.722Z,0.00
2019-04-23T01:43:01.809Z,0.00
2019-04-23T01:43:47.721Z,0.00
2019-04-23T01:44:56.404Z,0.00
2019-04-23T01:45:35.842Z,0.00
2019-04-23T01:46:49.277Z,0.00
2019-04-23T01:48:48.600Z,0.00
2019-04-23T01:49:54.318Z,0.00
2019-04-23T01:50:50.133Z,0.00
2019-04-23T01:51:49.664Z,0.00
2019-04-23T01:53:45.260Z,0.00
2019-04-23T01:54:50.008Z,0.00
2019-04-23T01:55:46.903Z,0.00
2019-04-23T01:56:39.965Z,0.00
2019-04-23T01:57:56.030Z,0.00
2019-04-23T01:58:44.021Z,0.00
2019-04-23T01:59:49.057Z,0.00
2019-04-23T02:00:47.677Z,0.00
2019-04-23T02:01:58.462Z,0.00
2019-04-23T02:02:49.938Z,0.00
2019-04-23T02:03:50.105Z,0.00
2019-04-23T02:04:47.101Z,0.00
2019-04-23T02:05:48.283Z,0.00
2019-04-23T02:06:45.846Z,0.00
2019-04-23T02:07:50.909Z,0.00
2019-04-23T02:08:50.070Z,0.00
2019-04-23T02:09:52.887Z,0.00
2019-04-23T02:10:53.702Z,0.00
2019-04-23T02:11:45.561Z,0.00
2019-04-23T02:12:53.617Z,0.00
2019-04-23T02:13:51.492Z,0.00
2019-04-23T02:14:50.370Z,0.00
2019-04-23T02:15:47.433Z,0.00
2019-04-23T02:16:45.916Z,0.00
2019-04-23T02:17:52.123Z,0.00
2019-04-23T02:18:49.354Z,0.00
2019-04-23T02:20:49.817Z,0.00
2019-04-23T02:21:43.788Z,0.00
2019-04-23T02:23:09.806Z,0.00
2019-04-23T02:23:42.440Z,0.00
2019-04-23T02:24:47.922Z,0.00
2019-04-23T02:26:45.049Z,0.00
2019-04-23T02:27:58.290Z,0.00
2019-04-23T02:31:12.148Z,0.00
2019-04-23T02:33:00.530Z,0.00
2019-04-23T02:34:14.779Z,0.00
2019-04-23T02:36:54.775Z,0.00
2019-04-23T02:38:00.638Z,0.00
2019-04-23T02:39:57.576Z,0.00
2019-04-23T02:41:04.346Z,0.00
2019-04-23T02:42:07.311Z,0.00
2019-04-23T02:43:01.538Z,0.00
2019-04-23T02:44:01.234Z,0.00
2019-04-23T02:46:01.922Z,0.00
2019-04-23T02:46:59.795Z,0.00
2019-04-23T02:48:03.367Z,0.00
2019-04-23T02:48:53.695Z,0.00
2019-04-23T02:50:43.922Z,0.00
2019-04-23T02:52:01.832Z,0.00
2019-04-23T02:52:56.117Z,0.00
2019-04-23T02:54:10.237Z,0.00
2019-04-23T02:54:57.141Z,0.00
2019-04-23T02:56:04.337Z,0.00
2019-04-23T02:56:51.151Z,0.00
2019-04-23T02:57:57.884Z,0.00
2019-04-23T02:58:52.591Z,0.00
2019-04-23T03:00:09.921Z,0.00
2019-04-23T03:01:06.467Z,0.00
2019-04-23T03:01:53.892Z,0.00
2019-04-23T03:04:58.355Z,0.00
2019-04-23T03:05:54.928Z,0.00
2019-04-23T03:06:55.959Z,0.00
2019-04-23T03:07:53.277Z,0.00
2019-04-23T03:09:51.810Z,0.00
2019-04-23T03:11:02.523Z,0.00
2019-04-23T03:13:54.331Z,0.00
2019-04-23T03:15:15.159Z,0.00
2019-04-23T03:17:59.396Z,0.00
2019-04-23T03:21:05.820Z,0.00
2019-04-23T03:23:03.640Z,0.00
2019-04-23T03:24:04.464Z,0.00
2019-04-23T03:25:56.560Z,0.00
2019-04-23T03:27:12.858Z,0.00
2019-04-23T03:27:45.990Z,0.00
2019-04-23T03:29:54.930Z,0.00
2019-04-23T03:32:34.183Z,0.00
2019-04-23T03:34:41.107Z,0.00
2019-04-23T03:38:48.383Z,4.00
2019-04-23T03:39:56.856Z,4.00
2019-04-23T03:41:02.469Z,0.00
2019-04-23T03:41:53.875Z,0.00
2019-04-23T03:43:07.921Z,0.00
2019-04-23T03:44:06.683Z,4.00
2019-04-23T03:46:12.215Z,0.00
2019-04-23T03:47:48.128Z,0.00
2019-04-23T03:48:51.180Z,4.00
2019-04-23T03:50:02.190Z,4.00
2019-04-23T03:50:44.045Z,8.00
2019-04-23T03:52:09.097Z,8.00
2019-04-23T03:52:57.273Z,8.00
2019-04-23T03:54:48.703Z,8.00
2019-04-23T03:55:54.652Z,12.00
2019-04-23T03:57:13.450Z,12.00
2019-04-23T03:57:43.413Z,16.00
2019-04-23T03:58:51.314Z,16.00
2019-04-23T04:00:58.386Z,20.00
2019-04-23T04:01:58.118Z,28.00
2019-04-23T04:03:03.748Z,32.00
2019-04-23T04:04:55.071Z,48.00
2019-04-23T04:07:10.505Z,68.00
2019-04-23T04:08:05.032Z,80.00
2019-04-23T04:09:03.132Z,88.00
2019-04-23T04:09:53.861Z,104.00
2019-04-23T04:11:09.630Z,124.00
2019-04-23T04:11:44.962Z,140.00
2019-04-23T04:12:46.018Z,164.00
2019-04-23T04:14:54.596Z,212.00
2019-04-23T04:15:55.245Z,236.00
2019-04-23T04:16:49.748Z,264.00
2019-04-23T04:18:01.845Z,292.00
2019-04-23T04:18:57.209Z,324.00
2019-04-23T04:19:59.892Z,360.00
2019-04-23T04:21:09.549Z,396.00
2019-04-23T04:22:00.322Z,444.00
2019-04-23T04:23:02.775Z,488.00
2019-04-23T04:24:11.229Z,536.00
2019-04-23T04:24:48.157Z,584.00
2019-04-23T04:26:07.102Z,636.00
2019-04-23T04:27:03.563Z,692.00
2019-04-23T04:28:54.894Z,820.00
2019-04-23T04:30:49.291Z,956.00
2019-04-23T04:31:52.310Z,1024.00
2019-04-23T04:35:12.567Z,1244.00
2019-04-23T04:35:47.482Z,1320.00
2019-04-23T04:37:24.302Z,1392.00
2019-04-23T04:38:54.483Z,1560.00
2019-04-23T04:40:12.332Z,1652.00
2019-04-23T04:40:57.268Z,1740.00
2019-04-23T04:41:58.734Z,1828.00
2019-04-23T04:43:09.283Z,1920.00
2019-04-23T04:46:04.959Z,2168.00
2019-04-23T04:46:50.128Z,2248.00
2019-04-23T04:49:01.610Z,2408.00
2019-04-23T04:51:06.101Z,2584.00
2019-04-23T04:52:01.110Z,2684.00
2019-04-23T04:53:12.602Z,2788.00
2019-04-23T04:54:09.623Z,2904.00
2019-04-23T04:54:42.320Z,3024.00
2019-04-23T04:55:54.884Z,3144.00
2019-04-23T04:56:58.159Z,3268.00
2019-04-23T04:58:55.756Z,3528.00
2019-04-23T05:01:03.631Z,3780.00
2019-04-23T05:03:36.403Z,4140.00
2019-04-23T05:06:08.018Z,4312.00
2019-04-23T05:07:04.212Z,4332.00
2019-04-23T05:07:48.200Z,4288.00
2019-04-23T05:08:54.494Z,4160.00
2019-04-23T05:11:04.667Z,4232.00
2019-04-23T05:11:54.171Z,4416.00
2019-04-23T05:12:45.255Z,4596.00
2019-04-23T05:15:50.212Z,5240.00
2019-04-23T05:16:52.832Z,5404.00
2019-04-23T05:17:59.330Z,5420.00
2019-04-23T05:18:47.088Z,5344.00
2019-04-23T05:20:54.836Z,5484.00
2019-04-23T05:21:54.926Z,5648.00
2019-04-23T05:23:02.768Z,5828.00
2019-04-23T05:25:47.904Z,6480.00
2019-04-23T05:26:39.511Z,6732.00
2019-04-23T05:27:56.513Z,7000.00
2019-04-23T05:28:55.642Z,7288.00
2019-04-23T05:29:46.226Z,7584.00
2019-04-23T05:31:02.351Z,7896.00
2019-04-23T05:31:42.158Z,8232.00
2019-04-23T05:32:50.413Z,8528.00
2019-04-23T05:33:47.662Z,8808.00
2019-04-23T05:34:46.703Z,9132.00
2019-04-23T05:36:08.894Z,9500.00
2019-04-23T05:36:52.069Z,9900.00
2019-04-23T05:37:59.063Z,10352.00
2019-04-23T05:38:50.792Z,10948.00
2019-04-23T05:39:52.155Z,11732.00
2019-04-23T05:40:53.708Z,12804.00
2019-04-23T05:41:41.712Z,14372.00
2019-04-23T05:42:49.396Z,19008.00
2019-04-23T05:43:46.459Z,26656.00
2019-04-23T05:47:07.194Z,24192.00
2019-04-23T05:47:48.243Z,26528.00
2019-04-23T05:48:45.582Z,32800.00
2019-04-23T05:49:47.640Z,35744.00
2019-04-23T05:50:51.872Z,42080.00
2019-04-23T05:51:50.899Z,46208.00
2019-04-23T05:52:45.930Z,49184.00
2019-04-23T05:53:46.661Z,48672.00
2019-04-23T05:54:52.309Z,48512.00
2019-04-23T05:55:49.394Z,51872.00
2019-04-23T05:56:49.031Z,55072.00
2019-04-23T05:57:47.054Z,56960.00
2019-04-23T05:58:47.013Z,59296.00
2019-04-23T05:59:42.214Z,63104.00
2019-04-23T06:00:51.023Z,66144.00
2019-04-23T06:01:53.991Z,65728.00
2019-04-23T06:02:53.046Z,63296.00
2019-04-23T06:03:52.625Z,64448.00
2019-04-23T06:04:43.146Z,69280.00
2019-04-23T06:05:46.573Z,67200.00
2019-04-23T06:07:04.713Z,64608.00
2019-04-23T06:08:48.460Z,62496.00
2019-04-23T06:09:49.905Z,50048.00
2019-04-23T06:10:54.164Z,42880.00
2019-04-23T06:12:45.349Z,50528.00
2019-04-23T06:13:56.322Z,52064.00
2019-04-23T06:14:48.763Z,55904.00
2019-04-23T06:15:46.629Z,64256.00
2019-04-23T06:18:02.326Z,65312.00
2019-04-23T06:18:47.920Z,63328.00
2019-04-23T06:19:48.386Z,64736.00
2019-04-23T06:20:48.791Z,59808.00
2019-04-23T06:21:57.516Z,55936.00
2019-04-23T06:24:41.547Z,43712.00
2019-04-23T06:25:57.680Z,43488.00
2019-04-23T06:26:45.834Z,41344.00
2019-04-23T06:27:49.490Z,38176.00
2019-04-23T06:28:44.158Z,36096.00
2019-04-23T06:29:57.733Z,37216.00
2019-04-23T06:30:46.770Z,38816.00
2019-04-23T06:31:50.937Z,39904.00
2019-04-23T06:32:42.977Z,39264.00
2019-04-23T06:34:03.825Z,34496.00
2019-04-23T06:34:42.795Z,33280.00
2019-04-23T06:35:47.022Z,29952.00
2019-04-23T06:36:44.477Z,29440.00
2019-04-23T06:38:04.840Z,30048.00
2019-04-23T06:38:58.844Z,30240.00
2019-04-23T06:39:48.081Z,32448.00
2019-04-23T06:40:47.606Z,35968.00
2019-04-23T06:41:44.880Z,30144.00
2019-04-23T06:42:49.859Z,23360.00
2019-04-23T06:43:56.394Z,21472.00
2019-04-23T06:44:44.972Z,20640.00
2019-04-23T06:46:01.535Z,20064.00
2019-04-23T06:46:50.563Z,19936.00
2019-04-23T06:47:46.402Z,19808.00
2019-04-23T06:48:45.455Z,19808.00
2019-04-23T06:49:45.029Z,19712.00
2019-04-23T06:50:52.996Z,19744.00
2019-04-23T06:51:56.574Z,19616.00
2019-04-23T06:52:31.923Z,19680.00
2019-04-23T06:53:45.351Z,20000.00
2019-04-23T06:54:49.316Z,20480.00
2019-04-23T06:55:47.128Z,20704.00
2019-04-23T06:56:51.097Z,20992.00
2019-04-23T06:57:44.247Z,21888.00
2019-04-23T06:58:43.422Z,24064.00
2019-04-23T06:59:43.343Z,27040.00
2019-04-23T07:01:53.193Z,26720.00
2019-04-23T07:02:47.378Z,24640.00
2019-04-23T07:03:43.819Z,23840.00
2019-04-23T07:04:49.651Z,23968.00
2019-04-23T07:05:53.482Z,24416.00
2019-04-23T07:06:46.896Z,23104.00
2019-04-23T07:07:55.153Z,22112.00
2019-04-23T07:09:40.156Z,22304.00
2019-04-23T07:10:55.503Z,21888.00
2019-04-23T07:11:40.205Z,21408.00
2019-04-23T07:12:55.774Z,21280.00
2019-04-23T07:13:56.420Z,21632.00
2019-04-23T07:15:00.854Z,20768.00
2019-04-23T07:15:50.097Z,20000.00
2019-04-23T07:16:38.440Z,19392.00
2019-04-23T07:17:42.801Z,19040.00
2019-04-23T07:18:43.470Z,18880.00
2019-04-23T07:19:44.978Z,18816.00
2019-04-23T07:20:40.583Z,18816.00
2019-04-23T07:21:41.817Z,18912.00
2019-04-23T07:22:42.853Z,19040.00
2019-04-23T07:23:53.917Z,19168.00
2019-04-23T07:24:43.661Z,19328.00
2019-04-23T07:25:40.407Z,19552.00
2019-04-23T07:26:45.361Z,19776.00
2019-04-23T07:27:43.230Z,20096.00
2019-04-23T07:28:50.399Z,20480.00
2019-04-23T07:29:40.889Z,21120.00
2019-04-23T07:30:38.362Z,22368.00
2019-04-23T07:32:44.829Z,30496.00
2019-04-23T07:33:50.655Z,33056.00
2019-04-23T07:34:49.758Z,33920.00
2019-04-23T07:35:49.479Z,38624.00
2019-04-23T07:36:41.070Z,42848.00
2019-04-23T07:37:51.699Z,36480.00
2019-04-23T07:39:01.544Z,30848.00
2019-04-23T07:39:45.642Z,30048.00
2019-04-23T07:40:40.579Z,29472.00
2019-04-23T07:41:47.860Z,29376.00
2019-04-23T07:42:41.906Z,29408.00
2019-04-23T07:43:52.458Z,29536.00
2019-04-23T07:45:44.645Z,28256.00
2019-04-23T07:46:56.288Z,29280.00
2019-04-23T07:47:41.781Z,30464.00
2019-04-23T07:48:43.792Z,30688.00
2019-04-23T07:49:49.131Z,31328.00
2019-04-23T07:50:44.124Z,31168.00
2019-04-23T07:51:46.897Z,31072.00
2019-04-23T07:52:50.664Z,30144.00
2019-04-23T07:53:46.536Z,29728.00
2019-04-23T07:54:51.286Z,30272.00
2019-04-23T07:55:49.628Z,30496.00
2019-04-23T07:56:47.684Z,30752.00
2019-04-23T07:57:41.919Z,30912.00
2019-04-23T07:58:44.785Z,30944.00
2019-04-23T07:59:50.178Z,31328.00
2019-04-23T08:01:39.220Z,32256.00
2019-04-23T08:03:08.706Z,33792.00
2019-04-23T08:03:45.993Z,37600.00
2019-04-23T08:04:56.808Z,46272.00
2019-04-23T08:05:39.682Z,53696.00
2019-04-23T08:06:50.657Z,53120.00
2019-04-23T08:07:47.273Z,53664.00
2019-04-23T08:08:47.484Z,52992.00
2019-04-23T08:09:48.130Z,48960.00
2019-04-23T08:11:12.046Z,45856.00
2019-04-23T08:11:58.019Z,44864.00
2019-04-23T08:12:46.912Z,41664.00
2019-04-23T08:13:48.907Z,39872.00
2019-04-23T08:14:51.571Z,38944.00
2019-04-23T08:15:43.371Z,36224.00
2019-04-23T08:16:43.843Z,34624.00
2019-04-23T08:17:41.549Z,34080.00
2019-04-23T08:18:49.327Z,33568.00
2019-04-23T08:19:49.906Z,32864.00
2019-04-23T08:20:49.030Z,32256.00
2019-04-23T08:21:39.982Z,31520.00
2019-04-23T08:22:53.772Z,31584.00
2019-04-23T08:23:42.552Z,33376.00
2019-04-23T08:24:52.101Z,35008.00
2019-04-23T08:26:00.486Z,35776.00
2019-04-23T08:27:43.648Z,36480.00
2019-04-23T08:28:58.385Z,37216.00
2019-04-23T08:29:41.043Z,37760.00
2019-04-23T08:30:49.925Z,39168.00
2019-04-23T08:31:45.115Z,40608.00
2019-04-23T08:32:45.232Z,41024.00
2019-04-23T08:33:49.909Z,39456.00
2019-04-23T08:34:45.122Z,38560.00
2019-04-23T08:35:48.598Z,39104.00
2019-04-23T08:37:54.351Z,34720.00
2019-04-23T08:38:44.429Z,30528.00
2019-04-23T08:39:44.627Z,27488.00
2019-04-23T08:40:52.313Z,26176.00
2019-04-23T08:41:59.961Z,25088.00
2019-04-23T08:43:49.374Z,24192.00
2019-04-23T08:44:46.182Z,23968.00
2019-04-23T08:45:35.495Z,23744.00
2019-04-23T08:46:51.820Z,23648.00
2019-04-23T08:47:42.591Z,23616.00
2019-04-23T08:48:41.615Z,23680.00
2019-04-23T08:49:46.813Z,23776.00
2019-04-23T08:52:48.386Z,24000.00
2019-04-23T08:53:41.003Z,23936.00
2019-04-23T08:54:55.906Z,23904.00
2019-04-23T08:56:48.570Z,23776.00
2019-04-23T08:57:36.942Z,23904.00
2019-04-23T08:58:54.928Z,24160.00
2019-04-23T08:59:45.469Z,24384.00
2019-04-23T09:00:45.670Z,24672.00
2019-04-23T09:01:59.464Z,24736.00
2019-04-23T09:02:42.477Z,24992.00
2019-04-23T09:03:51.259Z,25440.00
2019-04-23T09:05:00.507Z,25792.00
2019-04-23T09:05:48.194Z,25792.00
2019-04-23T09:06:35.402Z,25696.00
2019-04-23T09:07:45.601Z,25696.00
2019-04-23T09:09:57.600Z,25888.00
2019-04-23T09:11:50.907Z,26752.00
2019-04-23T09:12:45.406Z,27072.00
2019-04-23T09:13:54.810Z,27456.00
2019-04-23T09:14:46.556Z,27968.00
2019-04-23T09:15:44.967Z,28288.00
2019-04-23T09:16:48.812Z,28576.00
2019-04-23T09:17:49.811Z,28704.00
2019-04-23T09:18:36.882Z,29184.00
2019-04-23T09:19:56.288Z,29408.00
2019-04-23T09:20:37.805Z,29344.00
2019-04-23T09:21:40.537Z,29280.00
2019-04-23T09:22:38.601Z,29440.00
2019-04-23T09:26:41.025Z,30688.00
2019-04-23T09:27:41.970Z,30240.00
2019-04-23T09:28:44.806Z,30464.00
2019-04-23T09:30:00.806Z,31040.00
2019-04-23T09:30:44.886Z,32032.00
2019-04-23T09:32:14.863Z,32736.00
2019-04-23T09:32:49.174Z,33056.00
2019-04-23T09:33:46.643Z,33088.00
2019-04-23T09:34:46.520Z,33120.00
2019-04-23T09:35:38.954Z,33696.00
2019-04-23T09:36:40.544Z,34016.00
2019-04-23T09:38:44.906Z,35488.00
2019-04-23T09:39:42.237Z,36672.00
2019-04-23T09:40:54.445Z,36384.00
2019-04-23T09:41:38.046Z,37664.00
2019-04-23T09:42:52.519Z,38304.00
2019-04-23T09:43:36.956Z,38880.00
2019-04-23T09:44:56.554Z,39680.00
2019-04-23T09:45:48.429Z,38720.00
2019-04-23T09:46:44.052Z,39456.00
2019-04-23T09:47:46.309Z,41376.00
2019-04-23T09:48:51.095Z,43584.00
2019-04-23T09:49:40.977Z,45472.00
2019-04-23T09:50:47.207Z,47168.00
2019-04-23T09:51:47.417Z,48736.00
2019-04-23T09:52:52.690Z,48704.00
2019-04-23T09:53:47.192Z,49792.00
2019-04-23T09:54:51.020Z,51616.00
2019-04-23T09:55:43.101Z,52768.00
2019-04-23T09:56:44.614Z,55296.00
2019-04-23T09:57:45.903Z,54976.00
2019-04-23T09:58:48.518Z,53408.00
2019-04-23T09:59:43.271Z,54368.00
2019-04-23T10:01:44.133Z,55136.00
2019-04-23T10:02:34.281Z,55808.00
2019-04-23T10:03:25.713Z,59456.00
2019-04-23T10:04:29.684Z,59616.00
2019-04-23T10:05:28.859Z,59264.00
2019-04-23T10:06:22.794Z,60512.00
2019-04-23T10:07:28.894Z,58304.00
2019-04-23T10:08:21.977Z,58656.00
2019-04-23T10:09:16.674Z,61696.00
2019-04-23T10:10:14.428Z,63488.00
2019-04-23T10:11:15.854Z,62080.00
2019-04-23T10:12:14.634Z,58080.00
2019-04-23T10:13:13.899Z,49344.00
2019-04-23T10:14:14.678Z,48672.00
2019-04-23T10:15:22.775Z,45344.00
2019-04-23T10:16:17.339Z,42752.00
2019-04-23T10:17:14.021Z,44640.00
2019-04-23T10:18:14.190Z,44320.00
2019-04-23T10:19:15.110Z,44832.00
2019-04-23T10:20:13.817Z,41408.00
2019-04-23T10:21:15.327Z,42112.00
2019-04-23T10:22:15.176Z,44992.00
2019-04-23T10:23:14.240Z,41952.00
2019-04-23T10:24:15.152Z,39552.00
2019-04-23T10:25:15.095Z,36416.00
2019-04-23T10:26:14.265Z,38208.00
2019-04-23T10:27:14.848Z,40192.00
2019-04-23T10:28:15.163Z,39040.00
2019-04-23T10:29:14.099Z,36032.00
2019-04-23T10:30:14.489Z,37344.00
2019-04-23T10:31:14.525Z,39520.00
2019-04-23T10:32:13.715Z,42272.00
2019-04-23T10:33:13.939Z,43008.00
2019-04-23T10:34:14.811Z,41120.00
2019-04-23T10:35:22.232Z,37248.00
2019-04-23T10:36:19.096Z,35264.00
2019-04-23T10:37:15.595Z,30400.00
2019-04-23T10:38:16.381Z,23936.00
2019-04-23T10:39:20.745Z,22432.00
2019-04-23T10:40:19.635Z,21952.00
2019-04-23T10:41:15.993Z,21504.00
2019-04-23T10:42:14.206Z,21216.00
2019-04-23T10:43:15.046Z,20736.00
2019-04-23T10:44:13.569Z,20512.00
2019-04-23T10:45:27.299Z,20416.00
2019-04-23T10:46:36.582Z,20256.00
2019-04-23T10:47:44.677Z,20160.00
2019-04-23T10:48:57.641Z,20064.00
2019-04-23T10:50:49.561Z,19776.00
2019-04-23T10:52:02.600Z,19584.00
2019-04-23T10:52:37.643Z,19488.00
2019-04-23T10:54:12.596Z,19424.00
2019-04-23T10:57:41.319Z,18848.00
2019-04-23T10:58:38.460Z,18656.00
2019-04-23T11:00:44.979Z,18400.00
2019-04-23T11:01:43.604Z,18400.00
2019-04-23T11:02:57.805Z,18272.00
2019-04-23T11:04:54.355Z,18048.00
2019-04-23T11:05:56.324Z,17952.00
2019-04-23T11:06:45.075Z,17824.00
2019-04-23T11:07:47.181Z,17696.00
2019-04-23T11:08:42.435Z,17568.00
2019-04-23T11:09:52.970Z,17408.00
2019-04-23T11:10:48.432Z,17312.00
2019-04-23T11:11:48.312Z,17248.00
2019-04-23T11:17:45.610Z,16992.00
2019-04-23T11:18:52.090Z,16896.00
2019-04-23T11:19:49.313Z,16864.00
2019-04-23T11:20:45.444Z,16800.00
2019-04-23T11:21:43.086Z,16800.00
2019-04-23T11:22:45.167Z,16832.00
2019-04-23T11:23:42.081Z,16896.00
2019-04-23T11:24:48.330Z,16864.00
2019-04-23T11:25:42.923Z,16864.00
2019-04-23T11:26:42.371Z,16896.00
2019-04-23T11:27:44.008Z,16928.00
2019-04-23T11:28:38.235Z,16928.00
2019-04-23T11:29:38.697Z,16864.00
2019-04-23T11:33:42.985Z,16992.00
2019-04-23T11:38:56.250Z,17440.00
2019-04-23T11:39:45.915Z,17472.00
2019-04-23T11:40:38.470Z,17472.00
2019-04-23T11:42:47.167Z,17408.00
2019-04-23T11:43:39.496Z,17312.00
2019-04-23T11:44:42.003Z,17184.00
2019-04-23T11:45:50.305Z,17152.00
2019-04-23T11:48:14.662Z,17120.00
2019-04-23T11:48:50.799Z,17024.00
2019-04-23T11:53:54.251Z,16184.00
2019-04-23T11:55:44.676Z,16020.00
2019-04-23T11:57:52.025Z,15848.00
2019-04-23T11:58:42.855Z,15756.00
2019-04-23T11:59:44.303Z,15744.00
2019-04-23T12:00:57.207Z,15688.00
2019-04-23T12:02:43.357Z,15648.00
2019-04-23T12:03:57.103Z,15652.00
2019-04-23T12:04:47.399Z,15568.00
2019-04-23T12:05:50.621Z,15496.00
2019-04-23T12:06:39.812Z,15504.00
2019-04-23T12:09:51.712Z,15612.00
2019-04-23T12:10:45.883Z,15600.00
2019-04-23T12:12:53.360Z,15580.00
2019-04-23T12:13:56.607Z,15600.00
2019-04-23T12:16:49.204Z,15544.00
2019-04-23T12:17:43.861Z,15552.00
2019-04-23T12:20:49.125Z,15484.00
2019-04-23T12:21:44.699Z,15428.00
2019-04-23T12:22:51.429Z,15388.00
2019-04-23T12:23:48.419Z,15312.00
2019-04-23T12:25:02.524Z,15200.00
2019-04-23T12:26:56.545Z,15056.00
2019-04-23T12:27:33.396Z,14976.00
2019-04-23T12:28:43.925Z,14872.00
2019-04-23T12:30:48.620Z,14692.00
2019-04-23T12:31:47.650Z,14624.00
2019-04-23T12:32:46.474Z,14544.00
2019-04-23T12:33:53.615Z,14468.00
2019-04-23T12:34:52.572Z,14360.00
2019-04-23T12:35:35.593Z,14248.00
2019-04-23T12:36:51.029Z,14144.00
2019-04-23T12:37:39.114Z,14060.00
2019-04-23T12:38:40.716Z,13960.00
2019-04-23T12:39:42.031Z,13868.00
2019-04-23T12:40:45.681Z,13784.00
2019-04-23T12:41:43.426Z,13688.00
2019-04-23T12:43:28.816Z,13500.00
2019-04-23T12:44:45.693Z,13440.00
2019-04-23T12:45:38.758Z,13368.00
2019-04-23T12:46:48.878Z,13292.00
2019-04-23T12:47:49.192Z,13220.00
2019-04-23T12:48:53.304Z,13152.00
2019-04-23T12:53:45.520Z,12876.00
2019-04-23T12:55:01.418Z,12836.00
2019-04-23T12:55:39.993Z,12792.00
2019-04-23T12:56:53.118Z,12756.00
2019-04-23T12:57:40.892Z,12712.00
2019-04-23T12:58:34.058Z,12672.00
2019-04-23T12:59:47.752Z,12628.00
2019-04-23T13:01:48.903Z,12572.00
2019-04-23T13:02:46.748Z,12548.00
2019-04-23T13:06:42.585Z,12516.00
2019-04-23T13:08:44.638Z,12536.00
2019-04-23T13:09:49.121Z,12544.00
2019-04-23T13:10:53.997Z,12556.00
2019-04-23T13:11:45.063Z,12576.00
2019-04-23T13:12:57.223Z,12592.00
2019-04-23T13:13:48.229Z,12620.00
2019-04-23T13:14:49.093Z,12644.00
2019-04-23T13:15:40.274Z,12660.00
2019-04-23T13:16:50.000Z,12684.00
2019-04-23T13:17:50.370Z,12784.00
2019-04-23T13:19:51.876Z,12748.00
2019-04-23T13:20:47.952Z,12768.00
2019-04-23T13:24:40.772Z,12828.00
2019-04-23T13:25:55.526Z,12848.00
2019-04-23T13:26:35.369Z,12880.00
2019-04-23T13:27:46.646Z,12892.00
2019-04-23T13:28:40.566Z,12912.00
2019-04-23T13:29:43.206Z,12924.00
2019-04-23T13:31:34.642Z,12952.00
2019-04-23T13:32:46.398Z,12968.00
2019-04-23T13:33:51.403Z,12996.00
2019-04-23T13:34:51.045Z,13016.00
2019-04-23T13:36:01.637Z,13032.00
2019-04-23T13:37:46.093Z,13036.00
2019-04-23T13:39:42.195Z,13028.00
2019-04-23T13:41:52.121Z,13016.00
2019-04-23T13:42:47.889Z,13016.00
2019-04-23T13:43:41.005Z,13004.00
2019-04-23T13:44:42.711Z,13008.00
2019-04-23T13:46:35.644Z,12992.00
2019-04-23T13:47:59.643Z,12992.00
2019-04-23T13:48:40.137Z,12984.00
2019-04-23T13:49:49.275Z,12984.00
2019-04-23T13:51:43.499Z,12976.00
2019-04-23T13:55:04.679Z,12972.00
2019-04-23T13:55:36.245Z,12972.00
2019-04-23T13:57:12.976Z,12964.00
2019-04-23T13:58:43.362Z,12936.00
2019-04-23T13:59:47.103Z,12912.00
2019-04-23T14:00:58.103Z,12892.00
2019-04-23T14:04:45.175Z,12748.00
2019-04-23T14:05:41.203Z,12688.00
2019-04-23T14:06:43.406Z,12676.00
2019-04-23T14:07:48.599Z,12676.00
2019-04-23T14:08:47.394Z,12636.00
2019-04-23T14:09:45.862Z,12628.00
2019-04-23T14:10:43.453Z,12624.00
2019-04-23T14:11:40.418Z,12608.00
2019-04-23T14:13:06.528Z,12596.00
2019-04-23T14:13:52.045Z,12584.00
2019-04-23T14:14:47.835Z,12576.00
2019-04-23T14:15:47.928Z,12556.00
2019-04-23T14:18:56.565Z,12480.00
2019-04-23T14:19:41.824Z,12456.00
2019-04-23T14:20:40.442Z,12424.00
2019-04-23T14:21:37.685Z,12400.00
2019-04-23T14:23:59.673Z,12348.00
2019-04-23T14:25:02.062Z,12328.00
2019-04-23T14:25:51.732Z,12332.00
2019-04-23T14:27:49.514Z,12288.00
2019-04-23T14:29:48.972Z,12284.00
2019-04-23T14:30:46.422Z,12284.00
2019-04-23T14:33:46.975Z,12248.00
2019-04-23T14:34:48.385Z,12232.00
2019-04-23T14:35:40.317Z,12208.00
2019-04-23T14:36:44.731Z,12192.00
2019-04-23T14:37:52.825Z,12164.00
2019-04-23T14:39:42.669Z,12104.00
2019-04-23T14:40:51.382Z,12056.00
2019-04-23T14:42:02.768Z,12016.00
2019-04-23T14:43:49.262Z,11944.00
2019-04-23T14:44:41.482Z,11876.00
2019-04-23T14:46:17.417Z,11832.00
2019-04-23T14:46:50.127Z,11792.00
2019-04-23T14:48:46.507Z,11684.00
2019-04-23T14:49:53.971Z,11644.00
2019-04-23T14:50:41.232Z,11588.00
2019-04-23T14:52:00.148Z,11528.00
2019-04-23T14:52:50.757Z,11476.00
2019-04-23T14:53:42.648Z,11416.00
2019-04-23T14:55:15.261Z,11356.00
2019-04-23T14:55:55.696Z,11280.00
2019-04-23T14:57:06.797Z,11220.00
2019-04-23T14:59:37.599Z,11044.00
2019-04-23T15:00:54.114Z,10952.00
2019-04-23T15:01:55.005Z,10876.00